LICA/SUF METAR and TAF weather

Enter ICAO airport designator
Station Type Date Time Source
LICA METAR 2023/02/05 14:20 UTC NOAA

LICA 051420Z AUTO 01013KT 340V050 9999 NCD 09/M08 Q1023


Station Type Date Time Source
LICA Decoded METAR 2023/02/05 14:20 UTC NOAA

Lamezia Terme, Italy (LICA) 38-54N 016-15E
Feb 05, 2023 - 09:20 AM EST / 2023.02.05 1420 UTC
Wind: from the N (010 degrees) at 15 MPH (13 KT) (direction variable):0
Visibility: greater than 7 mile(s):0
Temperature: 48 F (9 C)
Dew Point: 17 F (-8 C)
Relative Humidity: 29%
Pressure (altimeter): 30.21 in. Hg (1023 hPa)
ob: LICA 051420Z AUTO 01013KT 340V050 9999 NCD 09/M08 Q1023
cycle: 14

Station Type Date Time Source
LICA TAF 2023/02/05 12:21 UTC NOAA

TAF LICA 051100Z 0512/0612 34013KT 9999 FEW060
TEMPO 0512/0516 34015G26KT
BECMG 0522/0524 VRB06KT
BECMG 0608/0610 34013KT

Example: see airport list